Accueil
METAR-TAF:

METAR-TAF

Aéroports :

Gibraltar, Gibraltar

Aéroport international de Gibraltar

latitude: 36-09N, longitude: 005-21W, altitude: 5 m

Observation

Le bulletin a été fait il y a 44 minutes, à 23:50 UTC
Vent 5 kt de ouest
Température 10°C
Humidité 87%
Pression 1027 hPa
Visibilité 10 km ou plus

METAR: LXGB 132350Z AUTO 26005KT 9999 // NCD 10/08 Q1027

Heure: 01:34 (00:34 UTC)

Prévision

Le bulletin a été fait il y a 7 heures et 57 minutes, à 16:37 UTC
Prévision valable du 13 à 18 UTC au 13 à 22 UTC
Vent 10 kt de est
Visibilité 10 km ou plus
Quelques nuages à une hauteur de 1500 ft
Evoluant progressivement
du 13 à 18 UTC au 13 à 21 UTC
Vent 3 kt de ouest/nord-ouest

TAF: LXGB 131637Z 1318/1322 08010KT 9999 FEW015 BECMG 1318/1321 30003KT

Observations et prévisions météorologiques de plus de 4000 aéroports (messages METAR et TAF).

Les stations disponibles sont représentées par des disques jaunes et rouges sur la carte.

Passer la souris dessus pour voir le nom de la station.

Cliquer dessus pour voir les observations et prévisions météorologiques.

Pour changer de carte: cliquez sur les boutons verts avec une croix noire pour zoomer, sur le bouton vert avec un tiret pour effectuer un zoom arrière, ou sur les flèches vertes pour les cartes adjacentes.


METAR-TAF: